Time;durP1;ratioP1;P1;durP2;ratioP2;P2;SDS_P1;SDS_P2;PMS_P1;PMS_P2;Temp;Humidity;BMP_temperature;BMP_pressure;BME280_temperature;BME280_humidity;BME280_pressure;Samples;Min_cycle;Max_cycle;Signal;HPM_P1;HPM_P2
2022/07/26 00:02:01;;;;;;;14.75;3.20;;;18.20;99.90;;;;;;5081348;27;20123;-90
2022/07/26 00:04:28;;;;;;;15.02;4.03;;;18.20;99.90;;;;;;5095779;27;20042;-90
2022/07/26 00:06:54;;;;;;;13.38;3.60;;;18.20;99.90;;;;;;5095341;27;20680;-88
2022/07/26 00:09:20;;;;;;;16.48;3.72;;;18.20;99.90;;;;;;5076745;27;20046;-90
2022/07/26 00:11:47;;;;;;;18.40;3.72;;;18.20;99.90;;;;;;5076830;27;20054;-88
2022/07/26 00:14:13;;;;;;;18.67;4.00;;;18.30;99.90;;;;;;5096535;27;20041;-89
2022/07/26 00:16:45;;;;;;;15.88;4.10;;;18.20;99.90;;;;;;5094322;27;20045;-89
2022/07/26 00:19:13;;;;;;;16.70;4.57;;;18.20;99.90;;;;;;5074127;27;20091;-90
2022/07/26 00:21:39;;;;;;;12.52;3.28;;;18.20;99.90;;;;;;5071737;27;20042;-90
2022/07/26 00:24:06;;;;;;;16.13;3.92;;;18.30;99.90;;;;;;5061532;27;20034;-89
2022/07/26 00:26:33;;;;;;;17.40;4.50;;;18.20;99.90;;;;;;5058092;27;20039;-88
2022/07/26 00:29:02;;;;;;;17.52;4.30;;;18.20;99.90;;;;;;5074505;27;20046;-89
2022/07/26 00:31:28;;;;;;;18.33;4.32;;;18.10;99.90;;;;;;5090014;27;20039;-89
2022/07/26 00:33:55;;;;;;;19.85;3.90;;;18.10;99.90;;;;;;5060823;27;20043;-91
2022/07/26 00:36:21;;;;;;;14.02;3.55;;;18.10;99.90;;;;;;5074673;27;20088;-89
2022/07/26 00:38:48;;;;;;;14.50;4.18;;;18.10;99.90;;;;;;5075804;27;20031;-89
2022/07/26 00:41:15;;;;;;;19.17;4.63;;;18.10;99.90;;;;;;5052792;27;20043;-90
2022/07/26 00:43:54;;;;;;;19.17;4.45;;;18.00;99.90;;;;;;5077453;27;20776;-90
2022/07/26 00:46:20;;;;;;;20.48;4.97;;;18.00;99.90;;;;;;5079373;27;20073;-89
2022/07/26 00:48:47;;;;;;;16.30;4.43;;;17.90;99.90;;;;;;5076803;27;20042;-89
2022/07/26 00:51:13;;;;;;;18.58;4.32;;;17.90;99.90;;;;;;5091090;27;20047;-88
2022/07/26 00:53:39;;;;;;;16.67;4.65;;;17.80;99.90;;;;;;5067623;27;20042;-89
2022/07/26 00:56:06;;;;;;;18.08;4.70;;;17.70;99.90;;;;;;5074873;27;20047;-88
2022/07/26 00:58:32;;;;;;;18.10;5.05;;;17.70;99.90;;;;;;5055924;27;20045;-90
2022/07/26 01:00:58;;;;;;;14.98;5.07;;;17.70;99.90;;;;;;5075006;27;20047;-89
2022/07/26 01:03:25;;;;;;;16.80;4.57;;;17.70;99.90;;;;;;5070815;27;20035;-89
2022/07/26 01:05:53;;;;;;;14.95;4.72;;;17.60;99.90;;;;;;5067013;27;20482;-90
2022/07/26 01:08:19;;;;;;;19.60;6.38;;;17.60;99.90;;;;;;5088995;27;20051;-90
2022/07/26 01:10:46;;;;;;;14.43;5.40;;;17.50;99.90;;;;;;5074036;27;20268;-89
2022/07/26 01:13:18;;;;;;;16.83;4.47;;;17.50;99.90;;;;;;5067659;27;20038;-87
2022/07/26 01:15:46;;;;;;;23.52;5.70;;;17.50;99.90;;;;;;5071464;27;20399;-88
2022/07/26 01:18:13;;;;;;;17.80;4.95;;;17.40;99.90;;;;;;5075653;27;20497;-89
2022/07/26 01:20:40;;;;;;;16.17;4.97;;;17.40;99.90;;;;;;5060074;27;20035;-89
2022/07/26 01:23:07;;;;;;;19.50;4.53;;;17.40;99.90;;;;;;5090782;27;20049;-88
2022/07/26 01:25:38;;;;;;;14.80;4.82;;;17.40;99.90;;;;;;5073900;27;20166;-89
2022/07/26 01:28:05;;;;;;;18.83;5.40;;;17.40;99.90;;;;;;5074780;27;20139;-89
2022/07/26 01:30:31;;;;;;;17.10;5.72;;;17.50;99.90;;;;;;5088651;27;20379;-88
2022/07/26 01:33:01;;;;;;;18.25;5.18;;;17.50;99.90;;;;;;5061345;27;20294;-88
2022/07/26 01:35:27;;;;;;;17.45;5.10;;;17.50;99.90;;;;;;5064458;27;20039;-89
2022/07/26 01:37:53;;;;;;;16.95;4.75;;;17.50;99.90;;;;;;5078370;27;20327;-87
2022/07/26 01:40:19;;;;;;;17.48;4.70;;;17.50;99.90;;;;;;5089525;27;20043;-88
2022/07/26 01:42:46;;;;;;;14.95;4.35;;;17.60;99.90;;;;;;5092572;27;20052;-90
2022/07/26 01:45:12;;;;;;;14.27;4.85;;;17.50;99.90;;;;;;5115984;27;20031;-89
2022/07/26 01:47:39;;;;;;;14.38;4.10;;;17.50;99.90;;;;;;5089997;27;20184;-88
2022/07/26 01:50:07;;;;;;;18.83;4.70;;;17.40;99.90;;;;;;5110644;27;20046;-89
2022/07/26 01:52:34;;;;;;;13.35;4.57;;;17.40;99.90;;;;;;5081892;27;20173;-88
2022/07/26 01:55:00;;;;;;;17.65;4.40;;;17.30;99.90;;;;;;5078224;27;20074;-89
2022/07/26 01:57:26;;;;;;;15.32;4.30;;;17.30;99.90;;;;;;5092249;27;20047;-88
2022/07/26 01:59:54;;;;;;;13.57;4.20;;;17.20;99.90;;;;;;5094615;27;20046;-90
2022/07/26 02:02:20;;;;;;;14.45;5.18;;;17.20;99.90;;;;;;5047177;27;20050;-89
2022/07/26 02:04:58;;;;;;;13.27;4.50;;;17.30;99.90;;;;;;5090821;27;20099;-90
2022/07/26 02:07:29;;;;;;;20.27;6.25;;;17.30;99.90;;;;;;5054314;27;20565;-90
2022/07/26 02:09:56;;;;;;;13.77;4.95;;;17.40;99.90;;;;;;5069408;27;20098;-89
2022/07/26 02:12:23;;;;;;;13.65;4.97;;;17.40;99.90;;;;;;5092649;27;20047;-89
2022/07/26 02:14:49;;;;;;;15.02;4.32;;;17.40;99.90;;;;;;5075191;27;20046;-90
2022/07/26 02:17:16;;;;;;;20.92;5.43;;;17.40;99.90;;;;;;5090378;27;20047;-88
2022/07/26 02:19:43;;;;;;;16.02;5.07;;;17.40;99.90;;;;;;5056241;27;20051;-89
2022/07/26 02:22:09;;;;;;;18.90;5.25;;;17.40;99.90;;;;;;5098449;27;20508;-91
2022/07/26 02:24:36;;;;;;;13.48;5.30;;;17.40;99.90;;;;;;5069895;27;20367;-89
2022/07/26 02:27:03;;;;;;;13.25;5.60;;;17.40;99.90;;;;;;5072837;27;20041;-89
2022/07/26 02:29:29;;;;;;;13.43;5.07;;;17.40;99.90;;;;;;5069941;27;20679;-90
2022/07/26 02:31:56;;;;;;;16.08;4.88;;;17.40;99.90;;;;;;5052511;27;21054;-89
2022/07/26 02:34:23;;;;;;;18.98;5.00;;;17.40;99.90;;;;;;5087407;27;20481;-90
2022/07/26 02:36:49;;;;;;;11.77;4.57;;;17.30;99.90;;;;;;5067334;27;20130;-89
2022/07/26 02:39:15;;;;;;;15.00;5.22;;;17.40;99.90;;;;;;5057053;27;20131;-90
2022/07/26 02:41:42;;;;;;;13.50;5.35;;;17.40;99.90;;;;;;5069299;28;20039;-89
2022/07/26 02:44:08;;;;;;;18.92;5.43;;;17.50;99.90;;;;;;5070451;27;20113;-89
2022/07/26 02:46:34;;;;;;;14.10;5.40;;;17.40;99.90;;;;;;5072952;27;20080;-90
2022/07/26 02:49:01;;;;;;;20.08;5.13;;;17.50;99.90;;;;;;5091984;27;20167;-89
2022/07/26 02:51:27;;;;;;;17.67;5.57;;;17.40;99.90;;;;;;5073040;27;20081;-90
2022/07/26 02:53:54;;;;;;;14.00;5.03;;;17.50;99.90;;;;;;5087219;27;20047;-88
2022/07/26 02:56:21;;;;;;;14.82;5.45;;;17.40;99.90;;;;;;5077952;27;20046;-89
2022/07/26 02:58:47;;;;;;;18.98;5.78;;;17.40;99.90;;;;;;5074906;27;20169;-90
2022/07/26 03:01:13;;;;;;;17.55;5.72;;;17.40;99.90;;;;;;5077433;27;20047;-89
2022/07/26 03:03:39;;;;;;;14.15;5.05;;;17.40;99.90;;;;;;5073591;27;20043;-89
2022/07/26 03:06:06;;;;;;;12.85;4.88;;;17.40;99.90;;;;;;5055103;27;20106;-88
2022/07/26 03:08:32;;;;;;;15.65;5.15;;;17.50;99.90;;;;;;5061133;27;20047;-90
2022/07/26 03:10:59;;;;;;;12.63;4.63;;;17.40;99.90;;;;;;5078177;27;20043;-90
2022/07/26 03:13:25;;;;;;;13.25;4.88;;;17.50;99.90;;;;;;5080995;27;20043;-89
2022/07/26 03:15:51;;;;;;;13.95;4.50;;;17.50;99.90;;;;;;5044618;27;20252;-89
2022/07/26 03:18:17;;;;;;;12.35;4.55;;;17.50;99.90;;;;;;5094404;27;20058;-89
2022/07/26 03:20:44;;;;;;;14.05;4.72;;;17.50;99.90;;;;;;5054861;27;20074;-89
2022/07/26 03:23:10;;;;;;;13.73;5.32;;;17.50;99.90;;;;;;5105873;27;20045;-89
2022/07/26 03:25:37;;;;;;;8.60;3.80;;;17.50;99.90;;;;;;5106272;27;20535;-88
2022/07/26 03:28:04;;;;;;;10.73;3.80;;;17.60;99.90;;;;;;5062188;27;20043;-89
2022/07/26 03:30:30;;;;;;;11.55;4.00;;;17.50;99.90;;;;;;5070187;27;20127;-90
2022/07/26 03:32:56;;;;;;;15.77;4.55;;;17.50;99.90;;;;;;5060619;27;20668;-89
2022/07/26 03:35:22;;;;;;;11.43;4.00;;;17.50;99.90;;;;;;5092585;27;20043;-90
2022/07/26 03:37:48;;;;;;;9.65;3.88;;;17.50;99.90;;;;;;5076013;27;20073;-89
2022/07/26 03:40:15;;;;;;;10.63;3.75;;;17.60;99.90;;;;;;5061958;27;20053;-89
2022/07/26 03:42:42;;;;;;;8.90;3.40;;;17.60;99.90;;;;;;5091164;27;20091;-91
2022/07/26 03:45:12;;;;;;;6.65;2.70;;;17.60;99.90;;;;;;5046577;27;20039;-90
2022/07/26 03:47:38;;;;;;;6.05;2.47;;;17.60;99.90;;;;;;5092545;27;20673;-89
2022/07/26 03:50:06;;;;;;;7.43;2.67;;;17.60;99.90;;;;;;5092172;27;20324;-91
2022/07/26 03:52:32;;;;;;;5.88;2.22;;;17.60;99.90;;;;;;5076508;27;20046;-90
2022/07/26 03:54:59;;;;;;;7.22;2.30;;;17.60;99.90;;;;;;5074255;27;20042;-89
2022/07/26 03:57:25;;;;;;;6.47;2.70;;;17.60;99.90;;;;;;5061555;27;20047;-89
2022/07/26 03:59:51;;;;;;;7.97;2.80;;;17.60;99.90;;;;;;5090052;27;20047;-88
2022/07/26 04:02:17;;;;;;;10.82;3.00;;;17.60;99.90;;;;;;5089385;27;20078;-89
2022/07/26 04:04:43;;;;;;;6.00;2.60;;;17.50;99.90;;;;;;5087091;27;20034;-90
2022/07/26 04:07:09;;;;;;;9.48;3.03;;;17.50;99.90;;;;;;5089563;27;20510;-90
2022/07/26 04:09:35;;;;;;;6.60;2.70;;;17.50;99.90;;;;;;5078909;27;20047;-89
2022/07/26 04:12:03;;;;;;;9.63;2.90;;;17.50;99.90;;;;;;5071047;27;20046;-90
2022/07/26 04:14:29;;;;;;;9.13;2.40;;;17.50;99.90;;;;;;5092278;27;20557;-90
2022/07/26 04:16:55;;;;;;;9.38;2.78;;;17.50;99.90;;;;;;5064434;27;20049;-90
2022/07/26 04:19:21;;;;;;;9.20;2.85;;;17.50;99.90;;;;;;5055802;27;20066;-89
2022/07/26 04:21:47;;;;;;;9.88;2.90;;;17.50;99.90;;;;;;5058016;27;20041;-90
2022/07/26 04:24:13;;;;;;;7.75;2.40;;;17.40;99.90;;;;;;5061488;27;20042;-91
2022/07/26 04:26:41;;;;;;;8.65;2.63;;;17.40;99.90;;;;;;5049364;27;20039;-90
2022/07/26 04:29:07;;;;;;;10.98;2.90;;;17.50;99.90;;;;;;5038977;27;20053;-88
2022/07/26 04:31:33;;;;;;;7.47;2.35;;;17.50;99.90;;;;;;5057507;27;20047;-89
2022/07/26 04:33:59;;;;;;;9.88;2.92;;;17.40;99.90;;;;;;5059749;27;20049;-90
2022/07/26 04:36:25;;;;;;;7.68;3.13;;;17.40;99.90;;;;;;5062654;27;20078;-92
2022/07/26 04:38:51;;;;;;;8.45;2.53;;;17.50;99.90;;;;;;5056201;27;20039;-90
2022/07/26 04:41:27;;;;;;;6.90;3.08;;;17.40;99.90;;;;;;5078601;27;20051;-93
2022/07/26 04:43:56;;;;;;;8.27;2.20;;;17.40;99.90;;;;;;5063165;27;20043;-91
2022/07/26 04:46:23;;;;;;;7.78;2.00;;;17.40;99.90;;;;;;5091891;27;20043;-91
2022/07/26 04:48:50;;;;;;;9.48;2.78;;;17.40;99.90;;;;;;5077062;27;20486;-88
2022/07/26 04:51:16;;;;;;;7.30;2.40;;;17.50;99.90;;;;;;5106459;27;20534;-89
2022/07/26 04:53:42;;;;;;;7.57;1.83;;;17.50;99.90;;;;;;5087161;27;20046;-87
2022/07/26 04:56:11;;;;;;;8.00;2.38;;;17.50;99.90;;;;;;5072010;27;20043;-88
2022/07/26 04:58:37;;;;;;;7.32;2.53;;;17.50;99.90;;;;;;5070282;27;20054;-87
2022/07/26 05:01:03;;;;;;;9.02;1.92;;;17.60;99.90;;;;;;5067858;27;20332;-87
2022/07/26 05:03:33;;;;;;;8.43;1.70;;;17.50;99.90;;;;;;5091005;27;20503;-88
2022/07/26 05:05:59;;;;;;;7.43;1.85;;;17.50;99.90;;;;;;5075866;27;20510;-88
2022/07/26 05:08:26;;;;;;;8.68;2.05;;;17.60;99.90;;;;;;5072983;27;20270;-92
2022/07/26 05:10:52;;;;;;;5.72;1.42;;;17.60;99.90;;;;;;5093133;27;20047;-90
2022/07/26 05:13:18;;;;;;;10.40;2.03;;;17.50;99.90;;;;;;5098005;27;20077;-91
2022/07/26 05:15:47;;;;;;;5.93;1.27;;;17.60;99.90;;;;;;5094816;27;20692;-92
2022/07/26 05:18:13;;;;;;;7.65;2.10;;;17.60;99.90;;;;;;5102242;27;20055;-93
2022/07/26 05:20:42;;;;;;;5.85;1.60;;;17.60;99.90;;;;;;5081030;27;20091;-92
2022/07/26 05:23:09;;;;;;;7.18;1.98;;;17.70;99.90;;;;;;5065207;27;20042;-87
2022/07/26 05:25:35;;;;;;;9.02;1.58;;;17.60;99.90;;;;;;5044573;27;20038;-88
2022/07/26 05:28:01;;;;;;;4.57;1.35;;;17.60;99.90;;;;;;5050355;27;20042;-89
2022/07/26 05:30:27;;;;;;;7.47;1.40;;;17.70;99.90;;;;;;5110938;27;20082;-88
2022/07/26 05:32:54;;;;;;;4.07;1.40;;;17.70;99.90;;;;;;5102061;27;20027;-88
2022/07/26 05:35:21;;;;;;;5.75;1.38;;;17.80;99.90;;;;;;5085511;27;20034;-89
2022/07/26 05:37:47;;;;;;;8.43;2.80;;;17.80;99.90;;;;;;5077673;27;20054;-88
2022/07/26 05:40:13;;;;;;;7.60;1.27;;;17.80;99.90;;;;;;5093166;27;20043;-88
2022/07/26 05:42:40;;;;;;;4.80;1.02;;;17.80;99.90;;;;;;5079792;27;20068;-88
2022/07/26 05:45:07;;;;;;;7.22;1.20;;;17.80;99.90;;;;;;5080979;27;20122;-89
2022/07/26 05:47:33;;;;;;;4.80;1.48;;;17.80;99.90;;;;;;5093472;27;20074;-88
2022/07/26 05:49:59;;;;;;;3.35;0.85;;;17.80;99.90;;;;;;5074487;27;20038;-88
2022/07/26 05:52:26;;;;;;;6.28;1.27;;;17.80;99.90;;;;;;5057597;27;20074;-89
2022/07/26 05:54:53;;;;;;;4.55;1.00;;;17.70;99.90;;;;;;5090807;27;20042;-88
2022/07/26 05:57:19;;;;;;;7.00;1.13;;;17.80;99.90;;;;;;5075207;27;20034;-89
2022/07/26 05:59:45;;;;;;;5.93;1.23;;;17.70;99.90;;;;;;5070400;27;20675;-87
2022/07/26 06:02:11;;;;;;;5.63;1.38;;;17.80;99.90;;;;;;5067185;27;20118;-86
2022/07/26 06:04:38;;;;;;;4.93;1.10;;;17.90;99.90;;;;;;5055094;27;20038;-90
2022/07/26 06:07:05;;;;;;;5.82;1.30;;;17.90;99.90;;;;;;5069606;27;20046;-88
2022/07/26 06:09:31;;;;;;;8.38;1.50;;;17.90;99.90;;;;;;5071061;27;20046;-88
2022/07/26 06:11:57;;;;;;;6.78;1.17;;;17.90;99.90;;;;;;5072556;27;20142;-88
2022/07/26 06:14:23;;;;;;;4.32;1.00;;;17.90;99.90;;;;;;5090318;27;20042;-88
2022/07/26 06:16:50;;;;;;;5.32;1.63;;;17.90;99.90;;;;;;5066084;27;20397;-88
2022/07/26 06:19:16;;;;;;;8.98;3.70;;;18.00;99.90;;;;;;5069602;27;20146;-88
2022/07/26 06:21:44;;;;;;;4.45;1.13;;;18.00;99.90;;;;;;5091308;27;20578;-89
2022/07/26 06:24:12;;;;;;;4.55;1.35;;;18.10;99.90;;;;;;5085720;27;20046;-86
2022/07/26 06:26:39;;;;;;;6.72;3.00;;;18.00;99.90;;;;;;5087139;27;20043;-89
2022/07/26 06:29:05;;;;;;;3.45;1.05;;;17.70;99.90;;;;;;5063162;27;21280;-92
2022/07/26 06:31:32;;;;;;;3.42;1.00;;;17.50;99.90;;;;;;5073395;27;20078;-86
2022/07/26 06:33:58;;;;;;;4.53;1.02;;;17.30;99.90;;;;;;5075414;27;20417;-92
2022/07/26 06:36:25;;;;;;;5.40;1.20;;;17.10;99.90;;;;;;5093291;27;20135;-90
2022/07/26 06:38:51;;;;;;;10.30;1.45;;;17.20;99.90;;;;;;5057373;27;20402;-86
2022/07/26 06:41:17;;;;;;;6.25;1.20;;;17.20;99.90;;;;;;5054846;27;20134;-89
2022/07/26 06:43:43;;;;;;;3.78;1.20;;;17.40;99.90;;;;;;5082228;27;20458;-88
2022/07/26 06:46:09;;;;;;;8.32;1.95;;;17.40;99.90;;;;;;5082586;27;20398;-89
2022/07/26 06:48:35;;;;;;;5.88;1.50;;;17.60;99.90;;;;;;5068799;27;20047;-89
2022/07/26 06:51:02;;;;;;;6.85;1.15;;;17.70;99.90;;;;;;5089054;27;20457;-89
2022/07/26 06:53:28;;;;;;;10.27;1.70;;;17.80;99.90;;;;;;5088454;27;20038;-88
2022/07/26 06:55:54;;;;;;;14.75;4.32;;;18.00;99.90;;;;;;5077165;27;20038;-87
2022/07/26 06:58:20;;;;;;;16.88;4.22;;;18.00;99.90;;;;;;5090115;27;20055;-91
2022/07/26 07:00:46;;;;;;;13.75;6.45;;;18.00;99.90;;;;;;5062108;27;20069;-84
2022/07/26 07:03:13;;;;;;;7.10;1.08;;;17.90;99.90;;;;;;5125674;27;20122;-89
2022/07/26 07:05:39;;;;;;;5.15;1.50;;;17.70;99.90;;;;;;5072760;28;20039;-86
2022/07/26 07:08:05;;;;;;;7.30;1.13;;;17.80;99.90;;;;;;5092569;27;20047;-84
2022/07/26 07:10:31;;;;;;;8.35;1.15;;;18.00;99.90;;;;;;5048899;27;20110;-88
2022/07/26 07:12:57;;;;;;;3.60;0.85;;;18.30;99.90;;;;;;5056119;27;20049;-84
2022/07/26 07:15:24;;;;;;;9.52;4.55;;;18.30;99.90;;;;;;5047866;27;20051;-85
2022/07/26 07:17:51;;;;;;;4.78;0.73;;;18.50;99.90;;;;;;5088925;27;20063;-84
2022/07/26 07:20:17;;;;;;;3.75;0.70;;;18.70;99.90;;;;;;5072082;27;20130;-84
2022/07/26 07:22:43;;;;;;;2.67;0.45;;;18.80;99.90;;;;;;5054538;27;20039;-84
2022/07/26 07:25:09;;;;;;;5.00;0.98;;;18.60;99.90;;;;;;5100541;27;20039;-85
2022/07/26 07:27:36;;;;;;;4.50;1.17;;;18.70;99.90;;;;;;5063932;27;20046;-82
2022/07/26 07:30:04;;;;;;;6.47;1.45;;;18.70;99.90;;;;;;5102906;27;20047;-82
2022/07/26 07:32:30;;;;;;;4.72;0.98;;;18.90;99.90;;;;;;5116477;27;20467;-82
2022/07/26 07:34:56;;;;;;;5.82;1.13;;;19.00;99.90;;;;;;5090808;27;20080;-83
2022/07/26 07:37:22;;;;;;;5.18;0.80;;;19.10;99.90;;;;;;5076764;27;20061;-81
2022/07/26 07:39:49;;;;;;;7.82;1.40;;;19.20;99.90;;;;;;5076183;27;20039;-82
2022/07/26 07:42:15;;;;;;;5.57;1.27;;;19.40;99.90;;;;;;5078217;27;20497;-82
2022/07/26 07:44:41;;;;;;;6.70;1.48;;;19.60;99.90;;;;;;5083711;27;20055;-82
2022/07/26 07:47:07;;;;;;;7.07;1.63;;;19.60;99.90;;;;;;5094717;27;20089;-82
2022/07/26 07:49:34;;;;;;;7.25;2.65;;;19.40;99.90;;;;;;5060925;27;20823;-83
2022/07/26 07:52:00;;;;;;;4.13;1.23;;;19.40;99.90;;;;;;5095359;27;20077;-84
2022/07/26 07:54:27;;;;;;;7.28;1.50;;;19.20;99.90;;;;;;5072861;27;20058;-84
2022/07/26 07:56:55;;;;;;;6.28;1.20;;;19.00;99.90;;;;;;5077358;27;20043;-84
2022/07/26 07:59:22;;;;;;;5.35;1.08;;;18.90;99.90;;;;;;5062647;27;20054;-82
2022/07/26 08:01:48;;;;;;;3.80;1.00;;;18.90;99.90;;;;;;5090885;27;20039;-83
2022/07/26 08:04:15;;;;;;;6.60;1.30;;;18.90;99.90;;;;;;5092743;27;20042;-83
2022/07/26 08:06:41;;;;;;;3.03;0.85;;;18.60;99.90;;;;;;5063238;27;20051;-84
2022/07/26 08:09:07;;;;;;;2.25;0.60;;;18.60;99.90;;;;;;5111091;27;20087;-83
2022/07/26 08:11:33;;;;;;;3.78;0.75;;;18.60;99.90;;;;;;5094026;27;20119;-83
2022/07/26 08:14:00;;;;;;;2.45;0.73;;;18.60;99.90;;;;;;5064867;27;20047;-83
2022/07/26 08:16:26;;;;;;;6.85;2.03;;;18.80;99.90;;;;;;5078050;27;20692;-84
2022/07/26 08:18:53;;;;;;;4.90;0.80;;;19.20;99.90;;;;;;5082933;27;20062;-82
2022/07/26 08:21:19;;;;;;;4.53;0.88;;;19.70;99.90;;;;;;5090556;27;20050;-82
2022/07/26 08:23:45;;;;;;;7.20;0.98;;;20.40;99.90;;;;;;5072248;27;20035;-83
2022/07/26 08:26:11;;;;;;;6.15;3.05;;;21.10;99.90;;;;;;5079792;27;20046;-83
2022/07/26 08:28:38;;;;;;;9.20;2.50;;;21.30;99.90;;;;;;5089388;27;20131;-83
2022/07/26 08:31:06;;;;;;;3.72;0.88;;;21.40;99.90;;;;;;5077394;27;20224;-83
2022/07/26 08:33:32;;;;;;;9.32;7.93;;;21.70;99.90;;;;;;5073773;27;20038;-82
2022/07/26 08:35:58;;;;;;;4.63;1.50;;;21.80;99.90;;;;;;5092484;27;20050;-84
2022/07/26 08:38:24;;;;;;;5.80;1.20;;;21.90;99.90;;;;;;5059475;27;20070;-84
2022/07/26 08:40:50;;;;;;;8.90;1.30;;;21.70;99.90;;;;;;5107534;27;20042;-83
2022/07/26 08:43:17;;;;;;;5.80;1.20;;;21.60;99.90;;;;;;5072830;27;20038;-83
2022/07/26 08:45:44;;;;;;;10.60;4.35;;;21.80;99.90;;;;;;5088717;27;20046;-84
2022/07/26 08:48:10;;;;;;;5.30;1.05;;;22.60;99.90;;;;;;5038861;27;20581;-83
2022/07/26 08:50:38;;;;;;;2.95;0.77;;;23.00;99.90;;;;;;5055071;27;20046;-82
2022/07/26 08:53:08;;;;;;;7.43;1.20;;;23.00;99.90;;;;;;5083680;27;20372;-82
2022/07/26 08:55:35;;;;;;;5.43;1.45;;;22.90;99.90;;;;;;5071864;27;20042;-83
2022/07/26 08:58:02;;;;;;;4.28;0.90;;;22.90;99.90;;;;;;5092437;27;20108;-84
2022/07/26 09:00:30;;;;;;;4.22;0.88;;;22.80;99.90;;;;;;5074019;27;20051;-80
2022/07/26 09:02:58;;;;;;;6.47;4.03;;;22.30;99.90;;;;;;5085730;27;20047;-82
2022/07/26 09:05:30;;;;;;;12.50;8.25;;;22.00;99.90;;;;;;5078302;27;20042;-84
2022/07/26 09:08:00;;;;;;;11.65;7.72;;;21.50;99.90;;;;;;5078362;27;20112;-84
2022/07/26 09:10:27;;;;;;;7.88;3.75;;;21.00;99.90;;;;;;5066043;27;20047;-85
2022/07/26 09:12:55;;;;;;;6.13;1.98;;;20.50;99.90;;;;;;5068910;27;20149;-83
2022/07/26 09:15:27;;;;;;;5.57;1.30;;;20.10;99.90;;;;;;5069645;27;20042;-85
2022/07/26 09:17:56;;;;;;;9.48;1.40;;;20.10;99.90;;;;;;5099397;27;20050;-85
2022/07/26 09:20:28;;;;;;;4.55;1.13;;;20.00;99.90;;;;;;5068979;27;20107;-85
2022/07/26 09:23:01;;;;;;;5.10;1.63;;;20.10;99.90;;;;;;5102973;27;20495;-85
2022/07/26 09:25:36;;;;;;;5.35;1.38;;;20.50;99.90;;;;;;5064699;27;20114;-85
2022/07/26 09:28:06;;;;;;;3.70;1.23;;;20.70;99.90;;;;;;5065867;27;20070;-86
2022/07/26 09:30:33;;;;;;;4.85;1.40;;;20.90;99.90;;;;;;5071646;27;20049;-87
2022/07/26 09:33:05;;;;;;;6.97;4.25;;;21.50;99.90;;;;;;5088399;27;20051;-86
2022/07/26 09:35:37;;;;;;;8.15;1.30;;;21.70;99.90;;;;;;5104064;27;20078;-86
2022/07/26 09:38:17;;;;;;;8.75;1.38;;;21.80;99.90;;;;;;5109033;27;20042;-85
2022/07/26 09:40:43;;;;;;;8.82;4.28;;;22.10;99.90;;;;;;5050004;27;20121;-88
2022/07/26 09:43:09;;;;;;;7.65;1.45;;;22.10;99.90;;;;;;5074541;27;20140;-88
2022/07/26 09:45:35;;;;;;;6.57;3.45;;;22.00;99.90;;;;;;5030713;27;20141;-87
2022/07/26 09:48:03;;;;;;;4.40;0.80;;;21.70;99.90;;;;;;5092771;27;20061;-85
2022/07/26 09:50:32;;;;;;;6.15;1.00;;;21.30;99.90;;;;;;5083021;27;20051;-84
2022/07/26 09:53:07;;;;;;;6.03;1.70;;;21.00;99.90;;;;;;5106289;27;20043;-84
2022/07/26 09:55:55;;;;;;;6.03;1.10;;;21.20;99.90;;;;;;5071909;27;20494;-89
2022/07/26 09:58:22;;;;;;;7.63;1.27;;;21.10;99.90;;;;;;5084657;27;20051;-93
2022/07/26 10:00:49;;;;;;;7.80;2.38;;;21.20;99.90;;;;;;5066185;27;20131;-85
2022/07/26 10:03:15;;;;;;;7.75;2.53;;;21.30;99.90;;;;;;5121779;27;20038;-82
2022/07/26 10:05:41;;;;;;;6.53;1.65;;;21.50;99.90;;;;;;5105629;27;20043;-85
2022/07/26 10:08:08;;;;;;;6.00;1.10;;;21.70;99.90;;;;;;5074193;27;20050;-84
2022/07/26 10:10:38;;;;;;;5.70;1.20;;;21.70;99.90;;;;;;5080778;27;20975;-84
2022/07/26 10:13:06;;;;;;;8.52;2.78;;;21.40;99.90;;;;;;5105353;27;20306;-83
2022/07/26 10:15:40;;;;;;;8.30;1.85;;;21.10;99.90;;;;;;5071740;27;20105;-85
2022/07/26 10:18:09;;;;;;;5.90;1.50;;;20.60;99.90;;;;;;5073573;27;20046;-83
2022/07/26 10:20:48;;;;;;;6.15;2.50;;;20.30;99.90;;;;;;5085973;27;20527;-83
2022/07/26 10:23:36;;;;;;;9.60;4.43;;;20.30;99.90;;;;;;5083041;27;20375;-86
2022/07/26 10:26:04;;;;;;;5.38;1.50;;;20.30;99.90;;;;;;5084972;27;20046;-83
2022/07/26 10:28:33;;;;;;;4.78;1.02;;;20.50;99.90;;;;;;5104814;27;20445;-83
2022/07/26 10:31:25;;;;;;;6.28;1.30;;;21.00;99.90;;;;;;5090525;27;20055;-86
2022/07/26 10:33:53;;;;;;;12.68;6.18;;;21.40;99.90;;;;;;5065709;27;20175;-83
2022/07/26 10:36:32;;;;;;;7.03;1.60;;;21.30;99.90;;;;;;5063905;27;20087;-82
2022/07/26 10:39:09;;;;;;;5.80;1.52;;;21.20;99.90;;;;;;5093113;27;20049;-83
2022/07/26 10:41:35;;;;;;;8.02;1.95;;;21.00;99.90;;;;;;5093773;27;20118;-82
2022/07/26 10:44:18;;;;;;;12.80;5.63;;;21.00;99.90;;;;;;5118559;27;20043;-82
2022/07/26 10:47:00;;;;;;;8.90;3.63;;;20.90;99.90;;;;;;5051220;27;20247;-83
2022/07/26 10:49:35;;;;;;;19.95;4.63;;;20.80;99.90;;;;;;5085463;27;20039;-82
2022/07/26 10:52:13;;;;;;;11.30;5.20;;;20.30;99.90;;;;;;5063704;28;20046;-82
2022/07/26 10:54:58;;;;;;;10.20;2.17;;;20.00;99.90;;;;;;5082506;28;20062;-82
2022/07/26 10:57:30;;;;;;;10.30;2.72;;;19.80;99.90;;;;;;5070278;27;20146;-82
2022/07/26 10:59:57;;;;;;;12.38;2.90;;;19.70;99.90;;;;;;5117986;27;20484;-82
2022/07/26 11:02:34;;;;;;;11.85;2.85;;;19.80;99.90;;;;;;5083586;27;20408;-82
2022/07/26 11:05:15;;;;;;;13.57;5.32;;;20.20;99.90;;;;;;5085035;27;20081;-82
2022/07/26 11:07:51;;;;;;;12.82;5.65;;;20.50;99.90;;;;;;5089626;27;20395;-82
2022/07/26 11:10:41;;;;;;;13.00;5.45;;;21.10;99.90;;;;;;5087971;27;20410;-81
2022/07/26 11:13:10;;;;;;;11.70;4.95;;;21.50;99.90;;;;;;5086939;27;20043;-82
2022/07/26 11:15:39;;;;;;;12.45;4.28;;;22.10;99.90;;;;;;5068285;27;20054;-82
2022/07/26 11:18:28;;;;;;;10.73;2.53;;;22.40;99.90;;;;;;5077671;27;20456;-82
2022/07/26 11:20:56;;;;;;;10.70;2.35;;;22.80;99.90;;;;;;5109999;27;20049;-82
2022/07/26 11:23:32;;;;;;;10.13;2.58;;;22.90;99.90;;;;;;5073301;27;20039;-82
2022/07/26 11:26:24;;;;;;;10.18;2.10;;;22.80;99.90;;;;;;5110419;27;20039;-82
2022/07/26 11:28:52;;;;;;;9.25;2.63;;;22.60;99.90;;;;;;5122451;27;20050;-83
2022/07/26 11:31:22;;;;;;;8.70;2.30;;;22.20;99.90;;;;;;5085510;27;20047;-82
2022/07/26 11:33:49;;;;;;;13.85;6.45;;;21.90;99.90;;;;;;5088058;27;20042;-82
2022/07/26 11:36:18;;;;;;;10.63;6.10;;;21.70;99.90;;;;;;5089050;27;20665;-82
2022/07/26 11:38:50;;;;;;;10.80;2.00;;;21.60;99.90;;;;;;5089971;27;20534;-84
2022/07/26 11:41:25;;;;;;;12.38;8.45;;;21.50;99.90;;;;;;5104921;27;20103;-85
2022/07/26 11:43:52;;;;;;;9.55;2.10;;;21.50;99.90;;;;;;5109451;27;20042;-84
2022/07/26 11:46:19;;;;;;;8.02;2.00;;;21.60;99.90;;;;;;5084936;27;20096;-84
2022/07/26 11:48:47;;;;;;;6.18;1.80;;;21.70;99.90;;;;;;5076709;27;20053;-83
2022/07/26 11:51:16;;;;;;;6.68;1.50;;;21.90;99.90;;;;;;5071914;27;20050;-83
2022/07/26 11:53:43;;;;;;;6.47;1.48;;;21.80;99.90;;;;;;5117296;27;20066;-81
2022/07/26 11:56:20;;;;;;;6.88;1.45;;;21.60;99.90;;;;;;5053283;27;20054;-83
2022/07/26 11:58:49;;;;;;;12.95;3.90;;;21.30;99.90;;;;;;5087248;27;20082;-83
2022/07/26 12:01:18;;;;;;;8.85;1.58;;;21.20;99.90;;;;;;5054365;27;20039;-84
2022/07/26 12:03:46;;;;;;;8.32;3.00;;;21.20;99.90;;;;;;5082944;27;20841;-85
2022/07/26 12:06:16;;;;;;;8.85;2.03;;;21.30;99.90;;;;;;5111525;27;20041;-83
2022/07/26 12:08:56;;;;;;;7.28;1.65;;;21.60;99.90;;;;;;5090690;27;20042;-84
2022/07/26 12:11:24;;;;;;;6.53;1.60;;;22.00;99.90;;;;;;5091955;27;20047;-84
2022/07/26 12:13:54;;;;;;;8.68;1.77;;;22.30;99.90;;;;;;5089534;27;20572;-85
2022/07/26 12:16:34;;;;;;;13.13;11.23;;;22.30;99.90;;;;;;5083590;27;20981;-83
2022/07/26 12:19:00;;;;;;;7.63;2.08;;;22.50;99.20;;;;;;5069249;27;20045;-85
2022/07/26 12:21:45;;;;;;;7.65;1.95;;;22.60;98.30;;;;;;5073728;27;20248;-84
2022/07/26 12:24:32;;;;;;;8.10;1.42;;;22.70;97.20;;;;;;5097715;27;20121;-81
2022/07/26 12:27:09;;;;;;;7.22;2.60;;;22.80;97.10;;;;;;5075066;27;20047;-82
2022/07/26 12:29:36;;;;;;;8.05;1.50;;;22.90;96.90;;;;;;5086356;27;20035;-83
2022/07/26 12:32:05;;;;;;;8.18;1.60;;;23.10;97.40;;;;;;5077715;27;20348;-85
2022/07/26 12:34:32;;;;;;;5.65;1.30;;;23.00;96.30;;;;;;5091026;27;20041;-83
2022/07/26 12:37:12;;;;;;;6.53;1.58;;;23.00;95.20;;;;;;5106308;27;20039;-82
2022/07/26 12:39:39;;;;;;;6.60;1.88;;;22.70;95.60;;;;;;5068900;27;20132;-82
2022/07/26 12:42:23;;;;;;;5.07;1.83;;;22.80;96.00;;;;;;5076877;27;20042;-85
2022/07/26 12:44:49;;;;;;;5.07;1.42;;;23.00;95.40;;;;;;5080355;27;20067;-82
2022/07/26 12:47:15;;;;;;;7.75;2.78;;;23.30;96.20;;;;;;5069749;27;20491;-81
2022/07/26 12:49:45;;;;;;;4.47;1.02;;;23.20;96.00;;;;;;5103101;27;20046;-81